createdAt,value
2023-02-09T00:02:46.588Z,19.09
2023-02-09T00:05:49.396Z,19.09
2023-02-09T00:08:53.646Z,19.34
2023-02-09T00:12:14.174Z,19.16
2023-02-09T00:15:16.954Z,19.16
2023-02-09T00:18:19.836Z,19.13
2023-02-09T00:21:22.661Z,19.13
2023-02-09T00:24:26.945Z,19.14
2023-02-09T00:27:32.370Z,19.14
2023-02-09T00:30:35.284Z,19.13
2023-02-09T00:33:38.649Z,19.14
2023-02-09T00:36:41.530Z,19.13
2023-02-09T00:39:45.809Z,19.13
2023-02-09T00:42:48.608Z,19.09
2023-02-09T00:45:51.408Z,19.09
2023-02-09T00:48:54.281Z,19.08
2023-02-09T00:51:57.223Z,19.12
2023-02-09T00:55:01.584Z,19.11
2023-02-09T00:58:04.513Z,19.10
2023-02-09T01:01:07.442Z,19.05
2023-02-09T01:04:10.289Z,19.09
2023-02-09T01:07:13.158Z,19.08
2023-02-09T01:10:17.437Z,19.08
2023-02-09T01:13:20.260Z,19.14
2023-02-09T01:16:23.102Z,19.07
2023-02-09T01:19:26.916Z,19.07
2023-02-09T01:22:29.766Z,19.07
2023-02-09T01:25:35.157Z,19.06
2023-02-09T01:28:38.388Z,19.12
2023-02-09T01:31:41.258Z,19.06
2023-02-09T01:34:44.180Z,19.06
2023-02-09T01:37:47.035Z,19.09
2023-02-09T01:40:51.320Z,19.03
2023-02-09T01:43:58.960Z,19.07
2023-02-09T01:47:01.752Z,19.07
2023-02-09T01:50:04.895Z,19.02
2023-02-09T01:53:08.207Z,19.07
2023-02-09T01:56:14.133Z,19.03
2023-02-09T01:59:17.269Z,19.03
2023-02-09T02:02:20.832Z,19.06
2023-02-09T02:05:23.946Z,19.01
2023-02-09T02:08:29.234Z,18.99
2023-02-09T02:11:33.580Z,18.93
2023-02-09T02:14:37.283Z,18.81
2023-02-09T02:17:59.909Z,18.75
2023-02-09T02:21:21.147Z,18.68
2023-02-09T02:24:38.763Z,18.56
2023-02-09T02:27:47.187Z,18.51
2023-02-09T02:30:59.916Z,18.46
2023-02-09T02:34:06.413Z,18.42
2023-02-09T02:37:15.784Z,18.37
2023-02-09T02:40:25.141Z,18.29
2023-02-09T02:43:38.859Z,18.30
2023-02-09T02:46:44.258Z,18.21
2023-02-09T02:49:52.125Z,18.20
2023-02-09T02:52:56.631Z,18.15
2023-02-09T02:56:01.860Z,18.08
2023-02-09T02:59:07.640Z,18.02
2023-02-09T03:02:12.834Z,17.94
2023-02-09T03:05:17.576Z,17.92
2023-02-09T03:08:20.508Z,17.83
2023-02-09T03:11:24.597Z,17.74
2023-02-09T03:14:39.121Z,17.66
2023-02-09T03:17:47.248Z,17.60
2023-02-09T03:20:53.616Z,17.52
2023-02-09T03:24:00.375Z,17.49
2023-02-09T03:27:05.914Z,17.43
2023-02-09T03:30:10.165Z,17.40
2023-02-09T03:33:20.912Z,17.36
2023-02-09T03:36:26.263Z,17.32
2023-02-09T03:39:29.135Z,17.33
2023-02-09T03:42:32.008Z,17.25
2023-02-09T03:45:34.803Z,17.25
2023-02-09T03:48:37.673Z,17.20
2023-02-09T03:51:41.848Z,17.18
2023-02-09T03:54:44.688Z,17.15
2023-02-09T03:57:47.465Z,17.13
2023-02-09T04:00:50.561Z,17.16
2023-02-09T04:03:53.327Z,17.27
2023-02-09T04:06:57.559Z,17.39
2023-02-09T04:10:00.368Z,17.43
2023-02-09T04:13:03.278Z,17.50
2023-02-09T04:16:06.785Z,17.56
2023-02-09T04:19:10.113Z,17.65
2023-02-09T04:22:14.314Z,17.77
2023-02-09T04:25:17.208Z,17.83
2023-02-09T04:28:20.437Z,17.86
2023-02-09T04:31:23.637Z,17.95
2023-02-09T04:34:26.588Z,18.00
2023-02-09T04:37:30.861Z,18.01
2023-02-09T04:40:33.632Z,18.01
2023-02-09T04:43:36.634Z,18.04
2023-02-09T04:46:39.437Z,18.06
2023-02-09T04:49:42.734Z,18.13
2023-02-09T04:52:46.909Z,18.07
2023-02-09T04:55:50.068Z,18.12
2023-02-09T04:59:10.300Z,18.14
2023-02-09T05:02:13.138Z,18.17
2023-02-09T05:05:16.057Z,18.17
2023-02-09T05:08:20.305Z,18.19
2023-02-09T05:11:25.286Z,18.17
2023-02-09T05:14:28.445Z,18.18
2023-02-09T05:17:32.538Z,18.19
2023-02-09T05:20:36.484Z,18.19
2023-02-09T05:23:40.683Z,18.24
2023-02-09T05:26:43.525Z,18.21
2023-02-09T05:29:46.390Z,18.28
2023-02-09T05:32:49.249Z,18.28
2023-02-09T05:35:52.834Z,18.27
2023-02-09T05:38:57.070Z,18.27
2023-02-09T05:42:18.025Z,18.26
2023-02-09T05:45:20.829Z,18.30
2023-02-09T05:48:23.708Z,18.30
2023-02-09T05:51:26.533Z,18.31
2023-02-09T05:54:30.933Z,18.29
2023-02-09T05:57:33.957Z,18.34
2023-02-09T06:00:37.087Z,18.35
2023-02-09T06:03:39.916Z,18.39
2023-02-09T06:06:42.785Z,18.35
2023-02-09T06:09:46.918Z,18.29
2023-02-09T06:12:49.864Z,18.23
2023-02-09T06:15:52.699Z,18.13
2023-02-09T06:18:55.848Z,18.06
2023-02-09T06:21:58.908Z,18.01
2023-02-09T06:25:03.140Z,17.98
2023-02-09T06:28:06.085Z,17.88
2023-02-09T06:31:09.162Z,17.84
2023-02-09T06:34:12.052Z,17.75
2023-02-09T06:37:14.875Z,17.68
2023-02-09T06:40:19.204Z,17.66
2023-02-09T06:43:22.073Z,17.63
2023-02-09T06:46:24.971Z,17.54
2023-02-09T06:49:27.828Z,17.49
2023-02-09T06:52:30.701Z,17.42
2023-02-09T06:55:34.967Z,17.42
2023-02-09T06:58:38.087Z,17.39
2023-02-09T07:01:40.974Z,17.39
2023-02-09T07:04:43.790Z,17.39
2023-02-09T07:07:47.095Z,17.37
2023-02-09T07:10:51.293Z,17.32
2023-02-09T07:13:54.115Z,17.32
2023-02-09T07:16:56.946Z,17.22
2023-02-09T07:19:59.759Z,17.19
2023-02-09T07:23:02.609Z,17.15
2023-02-09T07:26:07.555Z,17.11
2023-02-09T07:29:12.631Z,17.06
2023-02-09T07:32:15.826Z,17.07
2023-02-09T07:35:18.705Z,17.18
2023-02-09T07:38:21.541Z,17.25
2023-02-09T07:41:26.308Z,17.30
2023-02-09T07:44:29.229Z,17.35
2023-02-09T07:47:32.001Z,17.45
2023-02-09T07:50:34.862Z,17.56
2023-02-09T07:53:37.721Z,17.67
2023-02-09T07:56:42.205Z,17.71
2023-02-09T07:59:45.013Z,17.73
2023-02-09T08:02:47.959Z,17.77
2023-02-09T08:05:55.464Z,17.82
2023-02-09T08:09:01.032Z,17.85
2023-02-09T08:12:06.564Z,17.89
2023-02-09T08:15:09.706Z,17.91
2023-02-09T08:18:15.371Z,17.89
2023-02-09T08:21:19.193Z,17.94
2023-02-09T08:24:22.552Z,17.97
2023-02-09T08:27:26.878Z,17.98
2023-02-09T08:30:30.057Z,17.98
2023-02-09T08:33:32.885Z,17.98
2023-02-09T08:36:37.660Z,17.99
2023-02-09T08:39:40.495Z,18.02
2023-02-09T08:42:44.689Z,18.03
2023-02-09T08:45:47.970Z,18.04
2023-02-09T08:48:51.263Z,18.07
2023-02-09T08:51:54.120Z,18.08
2023-02-09T08:54:56.902Z,18.11
2023-02-09T08:58:01.251Z,18.11
2023-02-09T09:01:05.555Z,18.07
2023-02-09T09:04:08.753Z,18.14
2023-02-09T09:07:11.646Z,18.15
2023-02-09T09:10:14.536Z,18.14
2023-02-09T09:13:18.850Z,18.15
2023-02-09T09:16:22.683Z,18.21
2023-02-09T09:19:25.695Z,18.16
2023-02-09T09:22:28.538Z,18.29
2023-02-09T09:25:31.297Z,18.34
2023-02-09T09:28:35.560Z,18.24
2023-02-09T09:31:38.494Z,18.24
2023-02-09T09:34:41.868Z,18.22
2023-02-09T09:37:44.701Z,18.21
2023-02-09T09:40:47.537Z,18.25
2023-02-09T09:43:52.103Z,18.27
2023-02-09T09:47:01.160Z,18.28
2023-02-09T09:50:05.289Z,18.25
2023-02-09T09:53:11.532Z,18.26
2023-02-09T09:56:15.117Z,18.26
2023-02-09T09:59:20.785Z,18.31
2023-02-09T10:02:26.514Z,18.31
2023-02-09T10:05:30.023Z,18.32
2023-02-09T10:08:33.926Z,18.29
2023-02-09T10:11:39.373Z,18.28
2023-02-09T10:14:43.630Z,18.27
2023-02-09T10:17:46.443Z,18.34
2023-02-09T10:20:50.108Z,18.32
2023-02-09T10:24:04.873Z,18.34
2023-02-09T10:27:09.345Z,18.34
2023-02-09T10:30:20.534Z,18.35
2023-02-09T10:33:23.338Z,18.43
2023-02-09T10:36:27.971Z,18.39
2023-02-09T10:39:32.014Z,18.59
2023-02-09T10:42:36.700Z,18.23
2023-02-09T10:45:41.947Z,18.40
2023-02-09T10:48:44.731Z,18.41
2023-02-09T10:51:48.269Z,18.55
2023-02-09T10:54:53.348Z,18.52
2023-02-09T10:58:05.479Z,18.70
2023-02-09T11:05:29.557Z,18.54
2023-02-09T11:08:40.227Z,18.60
2023-02-09T11:11:44.378Z,18.57
2023-02-09T11:14:47.213Z,18.56
2023-02-09T11:17:51.722Z,18.59
2023-02-09T11:21:02.580Z,18.61
2023-02-09T11:24:08.949Z,18.88
2023-02-09T11:27:19.580Z,18.69
2023-02-09T11:30:40.654Z,18.83
2023-02-09T11:33:48.733Z,18.70
2023-02-09T11:36:57.900Z,18.67
2023-02-09T11:40:03.371Z,18.68
2023-02-09T11:43:13.311Z,18.69
2023-02-09T11:46:19.015Z,18.68
2023-02-09T11:49:23.244Z,18.70
2023-02-09T11:52:30.897Z,18.69
2023-02-09T11:55:36.634Z,18.70
2023-02-09T11:58:47.562Z,18.72
2023-02-09T12:01:54.553Z,18.74
2023-02-09T12:05:00.457Z,18.76
2023-02-09T12:08:12.985Z,18.76
2023-02-09T12:11:24.854Z,18.79
2023-02-09T12:14:45.399Z,18.83
2023-02-09T12:17:50.987Z,18.81
2023-02-09T12:20:55.812Z,18.80
2023-02-09T12:24:00.374Z,18.83
2023-02-09T12:27:03.175Z,18.81
2023-02-09T12:30:32.198Z,18.82
2023-02-09T12:33:36.768Z,18.81
2023-02-09T12:36:59.601Z,18.81
2023-02-09T12:40:22.718Z,18.76
2023-02-09T12:43:27.814Z,18.69
2023-02-09T12:46:45.434Z,18.62
2023-02-09T12:49:48.358Z,18.58
2023-02-09T12:53:24.525Z,18.51
2023-02-09T12:56:30.169Z,18.47
2023-02-09T12:59:33.051Z,18.41
2023-02-09T13:02:36.854Z,18.34
2023-02-09T13:05:44.810Z,18.69
2023-02-09T13:08:49.815Z,18.60
2023-02-09T13:11:57.746Z,18.67
2023-02-09T13:15:06.399Z,18.54
2023-02-09T13:18:15.412Z,18.45
2023-02-09T13:21:20.070Z,18.31
2023-02-09T13:24:24.736Z,18.54
2023-02-09T13:27:29.674Z,18.42
2023-02-09T13:30:33.494Z,18.41
2023-02-09T13:33:42.419Z,18.43
2023-02-09T13:36:47.478Z,18.74
2023-02-09T13:39:55.080Z,18.54
2023-02-09T13:43:00.744Z,18.58
2023-02-09T13:46:03.991Z,18.79
2023-02-09T13:49:13.848Z,18.73
2023-02-09T13:52:20.014Z,18.98
2023-02-09T13:55:24.202Z,19.02
2023-02-09T13:58:29.413Z,18.80
2023-02-09T14:01:33.866Z,18.75
2023-02-09T14:04:36.856Z,18.77
2023-02-09T14:07:39.973Z,18.82
2023-02-09T14:10:44.685Z,18.88
2023-02-09T14:13:50.770Z,19.01
2023-02-09T14:17:22.830Z,19.13
2023-02-09T14:20:27.039Z,18.89
2023-02-09T14:23:33.122Z,18.81
2023-02-09T14:26:37.885Z,19.01
2023-02-09T14:29:46.731Z,19.07
2023-02-09T14:32:53.228Z,19.16
2023-02-09T14:35:59.222Z,19.27
2023-02-09T14:39:11.274Z,19.30
2023-02-09T14:42:18.108Z,19.21
2023-02-09T14:45:39.662Z,19.11
2023-02-09T14:48:43.866Z,19.22
2023-02-09T14:51:50.734Z,19.25
2023-02-09T14:54:53.607Z,19.20
2023-02-09T14:58:03.895Z,19.25
2023-02-09T15:01:06.896Z,19.20
2023-02-09T15:04:11.247Z,19.24
2023-02-09T15:07:16.071Z,19.09
2023-02-09T15:10:21.899Z,18.99
2023-02-09T15:13:25.016Z,18.99
2023-02-09T15:16:27.925Z,18.99
2023-02-09T15:19:32.504Z,18.97
2023-02-09T15:22:35.361Z,18.97
2023-02-09T15:25:53.456Z,18.98
2023-02-09T15:28:56.307Z,18.96
2023-02-09T15:31:59.189Z,18.99
2023-02-09T15:35:03.400Z,19.00
2023-02-09T15:38:06.234Z,18.98
2023-02-09T15:41:27.848Z,19.01
2023-02-09T15:44:48.334Z,18.97
2023-02-09T15:47:53.437Z,18.98
2023-02-09T15:50:57.645Z,18.99
2023-02-09T15:54:01.876Z,19.04
2023-02-09T15:57:04.907Z,18.97
2023-02-09T16:00:10.702Z,18.99
2023-02-09T16:03:15.049Z,18.98
2023-02-09T16:06:20.448Z,18.98
2023-02-09T16:09:36.942Z,18.95
2023-02-09T16:12:53.354Z,18.95
2023-02-09T16:16:05.004Z,18.99
2023-02-09T16:19:14.266Z,18.99
2023-02-09T16:22:22.744Z,18.99
2023-02-09T16:25:26.504Z,19.01
2023-02-09T16:28:29.323Z,19.03
2023-02-09T16:31:32.267Z,19.04
2023-02-09T16:34:37.862Z,19.06
2023-02-09T16:37:44.290Z,19.05
2023-02-09T16:40:47.433Z,19.04
2023-02-09T16:43:51.518Z,19.03
2023-02-09T16:46:55.391Z,19.04
2023-02-09T16:50:00.679Z,19.05
2023-02-09T16:53:15.442Z,19.03
2023-02-09T16:56:18.681Z,19.04
2023-02-09T16:59:21.552Z,19.07
2023-02-09T17:02:29.945Z,19.08
2023-02-09T17:05:34.982Z,19.09
2023-02-09T17:08:39.298Z,19.05
2023-02-09T17:11:42.129Z,19.08
2023-02-09T17:14:44.989Z,19.09
2023-02-09T17:17:50.512Z,19.09
2023-02-09T17:20:55.172Z,19.02
2023-02-09T17:23:59.547Z,19.01
2023-02-09T17:27:02.395Z,18.97
2023-02-09T17:30:05.479Z,18.88
2023-02-09T17:33:11.786Z,18.82
2023-02-09T17:36:28.954Z,18.84
2023-02-09T17:39:33.419Z,18.81
2023-02-09T17:42:38.015Z,18.70
2023-02-09T17:45:41.909Z,18.87
2023-02-09T17:48:45.440Z,18.71
2023-02-09T17:51:48.756Z,18.69
2023-02-09T17:54:54.093Z,18.57
2023-02-09T17:57:58.285Z,18.52
2023-02-09T18:01:01.131Z,18.45
2023-02-09T18:04:06.988Z,18.51
2023-02-09T18:07:10.186Z,18.52
2023-02-09T18:10:14.494Z,18.58
2023-02-09T18:13:19.293Z,18.62
2023-02-09T18:16:24.322Z,18.72
2023-02-09T18:19:27.433Z,18.82
2023-02-09T18:22:30.410Z,18.83
2023-02-09T18:25:35.748Z,18.84
2023-02-09T18:28:38.588Z,18.90
2023-02-09T18:31:41.621Z,18.93
2023-02-09T18:34:44.469Z,18.91
2023-02-09T18:37:47.348Z,18.98
2023-02-09T18:40:53.300Z,18.93
2023-02-09T18:43:56.328Z,18.98
2023-02-09T18:47:00.644Z,19.02
2023-02-09T18:50:03.533Z,19.01
2023-02-09T18:53:06.387Z,19.03
2023-02-09T18:56:15.978Z,19.03
2023-02-09T18:59:19.279Z,19.05
2023-02-09T19:02:23.581Z,19.05
2023-02-09T19:05:27.752Z,19.05
2023-02-09T19:08:30.559Z,19.06
2023-02-09T19:11:35.047Z,19.12
2023-02-09T19:14:42.605Z,19.13
2023-02-09T19:17:45.686Z,19.17
2023-02-09T19:20:48.916Z,19.13
2023-02-09T19:23:51.775Z,19.13
2023-02-09T19:26:56.125Z,19.20
2023-02-09T19:29:59.056Z,19.16
2023-02-09T19:33:02.145Z,19.20
2023-02-09T19:36:05.116Z,19.15
2023-02-09T19:39:07.935Z,19.10
2023-02-09T19:42:12.434Z,19.09
2023-02-09T19:45:15.418Z,19.01
2023-02-09T19:48:18.237Z,18.95
2023-02-09T19:51:21.080Z,18.90
2023-02-09T19:54:23.912Z,18.86
2023-02-09T19:57:28.252Z,18.80
2023-02-09T20:00:31.389Z,18.73
2023-02-09T20:03:34.252Z,18.72
2023-02-09T20:06:37.054Z,18.63
2023-02-09T20:09:39.929Z,18.99
2023-02-09T20:15:48.212Z,18.46
2023-02-09T20:18:51.640Z,18.38
2023-02-09T20:21:54.469Z,18.30
2023-02-09T20:24:57.341Z,18.28
2023-02-09T20:28:01.542Z,18.25
2023-02-09T20:31:06.413Z,18.32
2023-02-09T20:34:10.529Z,18.35
2023-02-09T20:37:13.420Z,18.41
2023-02-09T20:40:16.388Z,18.52
2023-02-09T20:43:38.199Z,18.67
2023-02-09T20:46:54.959Z,18.73
2023-02-09T20:50:00.000Z,18.72
2023-02-09T20:53:03.116Z,18.80
2023-02-09T20:56:06.211Z,18.80
2023-02-09T20:59:10.481Z,18.83
2023-02-09T21:02:13.702Z,18.89
2023-02-09T21:05:16.731Z,18.94
2023-02-09T21:08:20.429Z,18.90
2023-02-09T21:11:23.722Z,18.95
2023-02-09T21:14:41.235Z,18.97
2023-02-09T21:17:47.953Z,18.94
2023-02-09T21:20:51.162Z,18.98
2023-02-09T21:23:54.701Z,18.99
2023-02-09T21:26:57.576Z,18.98
2023-02-09T21:30:01.836Z,18.97
2023-02-09T21:33:04.783Z,18.97
2023-02-09T21:36:08.470Z,19.34
2023-02-09T21:39:11.697Z,19.11
2023-02-09T21:42:31.243Z,19.18
2023-02-09T21:45:35.497Z,19.12
2023-02-09T21:48:38.994Z,19.07
2023-02-09T21:51:43.216Z,19.17
2023-02-09T21:54:46.865Z,19.14
2023-02-09T21:57:49.699Z,19.20
2023-02-09T22:00:58.943Z,19.23
2023-02-09T22:04:02.334Z,19.20
2023-02-09T22:07:05.136Z,19.37
2023-02-09T22:10:08.567Z,19.25
2023-02-09T22:13:11.438Z,19.19
2023-02-09T22:16:18.275Z,19.23
2023-02-09T22:19:21.272Z,19.25
2023-02-09T22:22:24.064Z,19.24
2023-02-09T22:25:26.899Z,19.24
2023-02-09T22:28:30.218Z,19.25
2023-02-09T22:31:34.421Z,19.25
2023-02-09T22:34:37.346Z,19.27
2023-02-09T22:37:40.144Z,19.24
2023-02-09T22:40:42.971Z,19.23
2023-02-09T22:43:45.719Z,19.25
2023-02-09T22:46:49.926Z,19.21
2023-02-09T22:49:52.774Z,19.23
2023-02-09T22:52:55.635Z,19.26
2023-02-09T22:55:58.452Z,19.22
2023-02-09T22:59:01.963Z,19.44
2023-02-09T23:02:06.438Z,19.36
2023-02-09T23:05:09.514Z,19.33
2023-02-09T23:08:12.379Z,19.35
2023-02-09T23:11:16.689Z,19.38
2023-02-09T23:14:19.605Z,19.36
2023-02-09T23:17:23.761Z,19.43
2023-02-09T23:20:27.694Z,19.39
2023-02-09T23:23:30.634Z,19.39
2023-02-09T23:26:33.526Z,19.42
2023-02-09T23:29:36.388Z,19.38
2023-02-09T23:32:40.681Z,19.43
2023-02-09T23:35:43.588Z,19.45
2023-02-09T23:38:47.265Z,19.42
2023-02-09T23:41:50.452Z,19.45
2023-02-09T23:44:53.293Z,19.43
2023-02-09T23:47:57.719Z,19.46
2023-02-09T23:51:01.113Z,19.47
2023-02-09T23:54:05.657Z,19.45
2023-02-09T23:57:08.791Z,19.43
